Time;durP1;ratioP1;P1;durP2;ratioP2;P2;SDS_P1;SDS_P2;PMS_P1;PMS_P2;Temp;Humidity;BMP_temperature;BMP_pressure;BME280_temperature;BME280_humidity;BME280_pressure;Samples;Min_cycle;Max_cycle;Signal;HPM_P1;HPM_P2
2022/09/17 00:00:18;;;;;;;;;;;20.20;69.90;;;;;;5075044;28;19908;-74
2022/09/17 00:02:50;;;;;;;;;;;20.30;70.50;;;;;;5061057;28;20373;-73
2022/09/17 00:05:17;;;;;;;;;;;20.50;70.70;;;;;;5080011;28;19912;-76
2022/09/17 00:07:44;;;;;;;;;;;20.50;69.20;;;;;;5074341;28;19913;-76
2022/09/17 00:10:10;;;;;;;;;;;20.60;69.40;;;;;;5079473;28;19928;-74
2022/09/17 00:12:38;;;;;;;;;;;20.60;69.10;;;;;;5073193;28;20321;-74
2022/09/17 00:15:05;;;;;;;;;;;20.70;69.20;;;;;;5078282;28;19916;-76
2022/09/17 00:17:32;;;;;;;;;;;20.70;68.60;;;;;;5083619;28;19926;-76
2022/09/17 00:19:58;;;;;;;;;;;20.70;68.70;;;;;;5073078;28;20018;-71
2022/09/17 00:22:25;;;;;;;;;;;20.70;69.00;;;;;;5084872;28;19920;-74
2022/09/17 00:24:52;;;;;;;;;;;20.80;69.10;;;;;;5061696;28;20613;-72
2022/09/17 00:27:18;;;;;;;;;;;20.90;69.60;;;;;;5080614;28;20008;-73
2022/09/17 00:29:47;;;;;;;;;;;21.00;68.90;;;;;;5077596;28;20005;-73
2022/09/17 00:32:13;;;;;;;;;;;21.10;67.90;;;;;;5077676;28;19920;-72
2022/09/17 00:34:41;;;;;;;;;;;21.20;67.60;;;;;;5077058;28;19921;-74
2022/09/17 00:37:08;;;;;;;;;;;21.20;67.00;;;;;;5080689;28;19909;-74
2022/09/17 00:39:35;;;;;;;;;;;21.30;66.80;;;;;;5075514;28;19923;-73
2022/09/17 00:42:04;;;;;;;;;;;21.30;66.40;;;;;;5077604;28;20368;-73
2022/09/17 00:44:43;;;;;;;;;;;21.40;66.60;;;;;;5074975;28;19915;-73
2022/09/17 00:47:33;;;;;;;;;;;21.50;67.00;;;;;;5073075;28;19912;-73
2022/09/17 00:50:00;;;;;;;;;;;21.70;66.90;;;;;;5072161;28;19951;-72
2022/09/17 00:52:35;;;;;;;;;;;21.60;65.90;;;;;;5085006;28;20008;-73
2022/09/17 00:55:07;;;;;;;;;;;21.50;66.10;;;;;;5076969;28;19917;-73
2022/09/17 00:57:34;;;;;;;;;;;21.50;66.40;;;;;;5086514;28;19912;-73
2022/09/17 01:00:01;;;;;;;;;;;21.40;67.20;;;;;;5074162;28;19923;-72
2022/09/17 01:02:28;;;;;;;;;;;21.40;67.40;;;;;;5090898;28;19916;-73
2022/09/17 01:04:55;;;;;;;;;;;21.30;67.00;;;;;;5069815;28;19908;-73
2022/09/17 01:07:47;;;;;;;;;;;21.30;68.00;;;;;;5089021;28;20395;-74
2022/09/17 01:10:23;;;;;;;;;;;21.30;67.70;;;;;;5058949;28;19951;-73
2022/09/17 01:13:08;;;;;;;;;;;21.20;67.60;;;;;;5090746;28;19992;-74
2022/09/17 01:15:35;;;;;;;;;;;21.10;67.30;;;;;;5065115;28;20023;-74
2022/09/17 01:18:11;;;;;;;;;;;21.00;67.60;;;;;;5069256;28;19912;-72
2022/09/17 01:20:44;;;;;;;;;;;20.90;68.30;;;;;;5088413;28;19912;-72
2022/09/17 01:23:28;;;;;;;;;;;20.80;68.30;;;;;;5076295;28;19912;-74
2022/09/17 01:26:13;;;;;;;;;;;20.90;69.50;;;;;;5071972;28;19912;-74
2022/09/17 01:28:56;;;;;;;;;;;21.00;68.50;;;;;;5071196;28;19943;-73
2022/09/17 01:31:25;;;;;;;;;;;21.20;70.70;;;;;;5087550;28;19944;-76
2022/09/17 01:34:10;;;;;;;;;;;21.30;70.80;;;;;;5072133;28;19921;-74
2022/09/17 01:36:39;;;;;;;;;;;21.30;71.10;;;;;;5077652;28;19919;-75
2022/09/17 01:39:32;;;;;;;;;;;21.40;69.20;;;;;;5082196;28;19920;-74
2022/09/17 01:42:11;;;;;;;;;;;21.50;70.90;;;;;;5085930;28;19912;-76
2022/09/17 01:45:01;;;;;;;;;;;21.80;68.80;;;;;;5088954;28;19912;-76
2022/09/17 01:47:29;;;;;;;;;;;22.20;67.40;;;;;;5071354;28;19913;-75
2022/09/17 01:50:00;;;;;;;;;;;22.60;66.30;;;;;;5070580;28;20365;-76
2022/09/17 01:52:27;;;;;;;;;;;22.80;65.50;;;;;;5074711;28;20665;-76
2022/09/17 01:54:57;;;;;;;;;;;23.10;66.40;;;;;;5092923;28;19951;-74
2022/09/17 01:57:42;;;;;;;;;;;23.30;64.80;;;;;;5077125;28;19966;-74
2022/09/17 02:00:11;;;;;;;;;;;23.30;64.60;;;;;;5076269;28;19915;-75
2022/09/17 02:02:38;;;;;;;;;;;23.00;64.60;;;;;;5095269;28;19908;-74
2022/09/17 02:05:23;;;;;;;;;;;22.60;65.80;;;;;;5093604;28;20006;-74
2022/09/17 02:07:55;;;;;;;;;;;22.40;69.30;;;;;;5094812;28;19935;-73
2022/09/17 02:10:25;;;;;;;;;;;22.00;70.40;;;;;;5080174;28;19923;-73
2022/09/17 02:12:56;;;;;;;;;;;21.40;77.30;;;;;;5077226;28;19973;-72
2022/09/17 02:15:26;;;;;;;;;;;20.60;84.30;;;;;;5090462;28;19974;-72
2022/09/17 02:17:58;;;;;;;;;;;19.80;85.80;;;;;;5095257;28;19908;-74
2022/09/17 02:20:29;;;;;;;;;;;19.20;90.50;;;;;;5094706;28;19908;-72
2022/09/17 02:22:57;;;;;;;;;;;18.70;90.60;;;;;;5094419;28;19961;-72
2022/09/17 02:25:37;;;;;;;;;;;18.50;90.70;;;;;;5093334;28;19912;-70
2022/09/17 02:28:23;;;;;;;;;;;18.70;91.50;;;;;;5094971;28;19908;-71
2022/09/17 02:30:49;;;;;;;;;;;19.40;91.80;;;;;;5093482;28;19916;-74
2022/09/17 02:33:18;;;;;;;;;;;20.00;90.10;;;;;;5092615;28;19915;-72
2022/09/17 02:35:45;;;;;;;;;;;20.40;85.00;;;;;;5092652;28;20389;-73
2022/09/17 02:38:12;;;;;;;;;;;20.90;83.10;;;;;;5067442;28;19957;-72
2022/09/17 02:40:50;;;;;;;;;;;21.40;84.30;;;;;;5080209;28;20007;-70
2022/09/17 02:43:41;;;;;;;;;;;22.00;78.90;;;;;;5077084;28;19916;-74
2022/09/17 02:46:24;;;;;;;;;;;22.50;74.40;;;;;;5092395;28;20392;-73
2022/09/17 02:49:09;;;;;;;;;;;23.20;74.80;;;;;;5078972;28;19924;-74
2022/09/17 02:51:35;;;;;;;;;;;23.60;72.10;;;;;;5093532;28;19908;-72
2022/09/17 02:54:12;;;;;;;;;;;23.60;70.70;;;;;;5092916;28;19915;-73
2022/09/17 02:56:38;;;;;;;;;;;23.80;68.80;;;;;;5088543;28;19916;-74
2022/09/17 02:59:05;;;;;;;;;;;23.60;66.90;;;;;;5075540;28;19913;-73
2022/09/17 03:01:42;;;;;;;;;;;23.70;68.00;;;;;;5077152;28;20581;-74
2022/09/17 03:04:09;;;;;;;;;;;24.00;68.10;;;;;;5086331;28;20046;-73
2022/09/17 03:06:37;;;;;;;;;;;24.00;69.30;;;;;;5082526;28;19944;-73
2022/09/17 03:09:04;;;;;;;;;;;24.00;68.80;;;;;;5082018;28;19924;-74
2022/09/17 03:11:30;;;;;;;;;;;23.80;68.70;;;;;;5082521;28;19913;-74
2022/09/17 03:13:57;;;;;;;;;;;23.40;70.30;;;;;;5082975;28;20311;-73
2022/09/17 03:16:24;;;;;;;;;;;22.90;68.90;;;;;;5083162;28;19951;-70
2022/09/17 03:18:50;;;;;;;;;;;22.40;69.60;;;;;;5082537;28;20376;-74
2022/09/17 03:21:17;;;;;;;;;;;21.90;70.50;;;;;;5082553;28;19915;-72
2022/09/17 03:23:45;;;;;;;;;;;21.60;72.20;;;;;;5082889;28;19913;-72
2022/09/17 03:26:12;;;;;;;;;;;21.30;77.00;;;;;;5089284;28;19920;-71
2022/09/17 03:28:38;;;;;;;;;;;20.80;85.50;;;;;;5077352;28;20136;-72
2022/09/17 03:31:05;;;;;;;;;;;20.10;91.50;;;;;;5073726;28;19912;-72
2022/09/17 03:33:32;;;;;;;;;;;20.00;93.00;;;;;;5072733;28;19915;-72
2022/09/17 03:35:59;;;;;;;;;;;20.90;96.00;;;;;;5078994;28;19923;-72
2022/09/17 03:38:25;;;;;;;;;;;21.50;94.50;;;;;;5079928;28;19967;-72
2022/09/17 03:40:59;;;;;;;;;;;22.00;91.40;;;;;;5060019;28;20273;-71
2022/09/17 03:43:26;;;;;;;;;;;22.80;88.30;;;;;;5072311;28;19915;-72
2022/09/17 03:45:53;;;;;;;;;;;23.30;85.80;;;;;;5071689;28;20379;-72
2022/09/17 03:48:20;;;;;;;;;;;23.70;83.70;;;;;;5078380;28;19912;-72
2022/09/17 03:50:47;;;;;;;;;;;24.60;81.30;;;;;;5071325;28;19915;-73
2022/09/17 03:53:13;;;;;;;;;;;25.50;81.00;;;;;;5075394;28;19916;-72
2022/09/17 03:55:40;;;;;;;;;;;26.10;72.30;;;;;;5091809;28;20022;-73
2022/09/17 03:58:07;;;;;;;;;;;26.60;69.70;;;;;;5075432;28;19912;-73
2022/09/17 04:00:36;;;;;;;;;;;26.90;65.00;;;;;;5072716;28;19909;-72
2022/09/17 04:03:03;;;;;;;;;;;27.20;66.20;;;;;;5085099;28;20380;-73
2022/09/17 04:05:30;;;;;;;;;;;27.60;65.20;;;;;;5092065;28;19927;-74
2022/09/17 04:07:57;;;;;;;;;;;27.80;65.60;;;;;;5083520;28;19916;-74
2022/09/17 04:10:23;;;;;;;;;;;28.20;64.10;;;;;;5072192;28;19917;-73
2022/09/17 04:12:50;;;;;;;;;;;28.00;62.80;;;;;;5052946;28;19916;-74
2022/09/17 04:15:17;;;;;;;;;;;28.00;61.20;;;;;;5070046;28;19920;-73
2022/09/17 04:17:43;;;;;;;;;;;27.30;61.70;;;;;;5068078;28;20265;-73
2022/09/17 04:20:10;;;;;;;;;;;26.70;63.40;;;;;;5074647;28;19916;-73
2022/09/17 04:22:37;;;;;;;;;;;26.20;66.60;;;;;;5082017;28;20246;-73
2022/09/17 04:25:04;;;;;;;;;;;26.30;63.20;;;;;;5080801;28;19912;-72
2022/09/17 04:27:30;;;;;;;;;;;26.90;62.50;;;;;;5081701;28;19958;-73
2022/09/17 04:29:57;;;;;;;;;;;27.80;63.60;;;;;;5073255;28;20007;-73
2022/09/17 04:32:23;;;;;;;;;;;28.00;58.90;;;;;;5071747;28;19924;-73
2022/09/17 04:34:50;;;;;;;;;;;27.60;58.10;;;;;;5072033;28;20425;-72
2022/09/17 04:37:18;;;;;;;;;;;27.50;58.60;;;;;;5082332;28;19916;-71
2022/09/17 04:39:45;;;;;;;;;;;27.60;59.20;;;;;;5091451;28;20314;-72
2022/09/17 04:42:11;;;;;;;;;;;27.90;60.40;;;;;;5091676;28;20372;-74
2022/09/17 04:44:38;;;;;;;;;;;27.80;60.00;;;;;;5091863;28;19908;-75
2022/09/17 04:47:05;;;;;;;;;;;27.90;58.70;;;;;;5082222;28;19995;-75
2022/09/17 04:49:31;;;;;;;;;;;28.20;57.40;;;;;;5085149;28;19919;-73
2022/09/17 04:51:58;;;;;;;;;;;28.60;57.10;;;;;;5071630;28;19908;-73
2022/09/17 04:54:25;;;;;;;;;;;28.80;56.60;;;;;;5071244;28;20422;-72
2022/09/17 04:56:51;;;;;;;;;;;28.50;55.80;;;;;;5081835;28;19931;-73
2022/09/17 04:59:18;;;;;;;;;;;28.10;55.10;;;;;;5090506;28;20061;-73
2022/09/17 05:01:45;;;;;;;;;;;27.90;56.50;;;;;;5090937;28;19990;-72
2022/09/17 05:04:11;;;;;;;;;;;28.10;56.20;;;;;;5090953;28;19996;-70
2022/09/17 05:06:38;;;;;;;;;;;28.40;55.10;;;;;;5087514;28;20378;-73
2022/09/17 05:09:04;;;;;;;;;;;28.70;55.30;;;;;;5091021;28;20018;-72
2022/09/17 05:11:31;;;;;;;;;;;28.60;55.20;;;;;;5091160;28;19977;-72
2022/09/17 05:13:58;;;;;;;;;;;28.20;55.10;;;;;;5091033;28;19916;-74
2022/09/17 05:16:24;;;;;;;;;;;28.50;55.60;;;;;;5080029;28;19928;-73
2022/09/17 05:18:51;;;;;;;;;;;28.60;54.90;;;;;;5090865;28;19958;-73
2022/09/17 05:21:18;;;;;;;;;;;28.80;55.00;;;;;;5090977;28;19973;-72
2022/09/17 05:23:44;;;;;;;;;;;29.10;55.70;;;;;;5091447;28;19909;-72
2022/09/17 05:26:11;;;;;;;;;;;28.60;54.60;;;;;;5090619;28;19977;-72
2022/09/17 05:28:38;;;;;;;;;;;27.90;54.60;;;;;;5094968;28;19912;-73
2022/09/17 05:31:04;;;;;;;;;;;26.80;55.80;;;;;;5095039;28;19934;-73
2022/09/17 05:33:31;;;;;;;;;;;25.80;56.70;;;;;;5076682;28;20003;-72
2022/09/17 05:35:58;;;;;;;;;;;24.90;58.00;;;;;;5068043;28;19970;-72
2022/09/17 05:38:25;;;;;;;;;;;25.00;58.10;;;;;;5090955;28;20275;-72
2022/09/17 05:40:52;;;;;;;;;;;25.60;57.90;;;;;;5057126;28;19920;-74
2022/09/17 05:43:18;;;;;;;;;;;25.90;57.20;;;;;;5075848;28;19923;-73
2022/09/17 05:45:45;;;;;;;;;;;26.10;55.80;;;;;;5074520;28;20004;-71
2022/09/17 05:48:14;;;;;;;;;;;26.20;55.20;;;;;;5093088;28;19912;-72
2022/09/17 05:50:41;;;;;;;;;;;25.90;54.90;;;;;;5095241;28;19974;-72
2022/09/17 05:53:10;;;;;;;;;;;25.20;56.40;;;;;;5094917;28;19969;-73
2022/09/17 05:55:36;;;;;;;;;;;24.60;57.40;;;;;;5089701;28;19920;-72
2022/09/17 05:58:16;;;;;;;;;;;24.00;58.80;;;;;;5081072;28;19946;-73
2022/09/17 06:00:44;;;;;;;;;;;23.50;58.50;;;;;;5079652;28;20383;-72
2022/09/17 06:03:12;;;;;;;;;;;23.10;59.20;;;;;;5083212;28;19951;-73
2022/09/17 06:05:38;;;;;;;;;;;23.00;60.60;;;;;;5076187;28;19908;-73
2022/09/17 06:08:05;;;;;;;;;;;23.20;60.20;;;;;;5056241;28;19952;-72
2022/09/17 06:10:35;;;;;;;;;;;23.10;59.50;;;;;;5088025;28;19913;-73
2022/09/17 06:13:01;;;;;;;;;;;22.90;60.60;;;;;;5056723;28;20383;-74
2022/09/17 06:15:28;;;;;;;;;;;22.90;60.10;;;;;;5074373;28;19916;-73
2022/09/17 06:17:55;;;;;;;;;;;23.40;60.00;;;;;;5074542;28;19912;-73
2022/09/17 06:20:22;;;;;;;;;;;23.90;59.90;;;;;;5072740;28;20378;-74
2022/09/17 06:22:48;;;;;;;;;;;24.20;59.20;;;;;;5056036;28;19908;-73
2022/09/17 06:25:15;;;;;;;;;;;24.60;58.80;;;;;;5073366;28;20365;-72
2022/09/17 06:27:42;;;;;;;;;;;25.10;57.90;;;;;;5093203;28;20328;-73
2022/09/17 06:30:10;;;;;;;;;;;24.90;57.40;;;;;;5075966;28;19915;-74
2022/09/17 06:32:37;;;;;;;;;;;24.60;58.20;;;;;;5094290;28;20303;-72
2022/09/17 06:35:03;;;;;;;;;;;24.20;58.80;;;;;;5075259;28;19961;-73
2022/09/17 06:37:31;;;;;;;;;;;24.10;58.90;;;;;;5072831;28;19912;-72
2022/09/17 06:39:58;;;;;;;;;;;24.00;58.90;;;;;;5094599;28;20006;-75
2022/09/17 06:42:27;;;;;;;;;;;23.60;59.20;;;;;;5075820;28;19915;-73
2022/09/17 06:44:54;;;;;;;;;;;23.00;60.10;;;;;;5093665;28;19909;-73
2022/09/17 06:47:23;;;;;;;;;;;22.80;61.00;;;;;;5075462;28;19916;-73
2022/09/17 06:49:50;;;;;;;;;;;22.60;62.00;;;;;;5056194;28;19931;-74
2022/09/17 06:52:17;;;;;;;;;;;22.50;61.10;;;;;;5075014;28;19963;-75
2022/09/17 06:54:44;;;;;;;;;;;22.30;61.00;;;;;;5069608;28;20007;-75
2022/09/17 06:57:10;;;;;;;;;;;22.30;61.00;;;;;;5056552;28;19923;-74
2022/09/17 06:59:41;;;;;;;;;;;22.20;61.20;;;;;;5072475;28;19947;-75
2022/09/17 07:02:08;;;;;;;;;;;22.20;61.60;;;;;;5079771;28;19924;-74
2022/09/17 07:04:35;;;;;;;;;;;22.00;61.90;;;;;;5064893;28;19912;-75
2022/09/17 07:07:02;;;;;;;;;;;21.80;62.30;;;;;;5043803;28;19995;-74
2022/09/17 07:09:29;;;;;;;;;;;21.60;62.50;;;;;;5071375;28;20327;-72
2022/09/17 07:11:56;;;;;;;;;;;21.20;62.70;;;;;;5064734;28;19962;-74
2022/09/17 07:14:23;;;;;;;;;;;21.20;63.70;;;;;;5063313;28;19908;-74
2022/09/17 07:16:51;;;;;;;;;;;21.10;63.30;;;;;;5081296;28;20357;-72
2022/09/17 07:19:18;;;;;;;;;;;21.00;62.60;;;;;;5081165;28;19912;-74
2022/09/17 07:21:47;;;;;;;;;;;20.70;63.20;;;;;;5063322;28;19970;-71
2022/09/17 07:24:14;;;;;;;;;;;20.50;64.20;;;;;;5065309;28;19977;-74
2022/09/17 07:26:41;;;;;;;;;;;20.30;64.70;;;;;;5056182;28;19912;-75
2022/09/17 07:29:08;;;;;;;;;;;20.10;64.70;;;;;;5064819;28;19954;-73
2022/09/17 07:31:35;;;;;;;;;;;19.80;64.70;;;;;;5069253;28;19908;-75
2022/09/17 07:34:02;;;;;;;;;;;19.70;65.10;;;;;;5084182;28;19916;-73
2022/09/17 07:36:29;;;;;;;;;;;19.60;65.70;;;;;;5077339;28;19920;-73
2022/09/17 07:38:55;;;;;;;;;;;19.40;66.10;;;;;;5054083;28;19940;-72
2022/09/17 07:41:22;;;;;;;;;;;19.30;66.90;;;;;;5088285;28;19966;-73
2022/09/17 07:43:51;;;;;;;;;;;19.20;67.20;;;;;;5070320;28;20357;-74
2022/09/17 07:46:19;;;;;;;;;;;19.10;67.10;;;;;;5076094;28;20023;-72
2022/09/17 07:48:49;;;;;;;;;;;19.00;67.50;;;;;;5052011;28;20304;-74
2022/09/17 07:51:18;;;;;;;;;;;19.00;67.80;;;;;;5053435;28;19939;-76
2022/09/17 07:53:50;;;;;;;;;;;18.90;68.00;;;;;;5062495;28;19918;-76
2022/09/17 07:56:16;;;;;;;;;;;18.80;68.80;;;;;;5080380;28;19920;-72
2022/09/17 07:58:43;;;;;;;;;;;18.80;68.60;;;;;;5061149;28;19915;-72
2022/09/17 08:01:10;;;;;;;;;;;18.70;68.80;;;;;;5070645;28;19969;-77
2022/09/17 08:03:38;;;;;;;;;;;18.60;68.50;;;;;;5058917;28;19932;-75
2022/09/17 08:06:06;;;;;;;;;;;18.60;69.40;;;;;;5085774;28;19912;-75
2022/09/17 08:08:34;;;;;;;;;;;18.50;69.40;;;;;;5056457;28;20265;-74
2022/09/17 08:11:21;;;;;;;;;;;18.50;69.80;;;;;;5074740;28;19908;-75
2022/09/17 08:13:48;;;;;;;;;;;18.40;69.70;;;;;;5081250;28;19912;-73
2022/09/17 08:16:15;;;;;;;;;;;18.30;69.20;;;;;;5087169;28;19927;-68
2022/09/17 08:18:43;;;;;;;;;;;18.20;70.10;;;;;;5069794;28;19924;-71
2022/09/17 08:21:12;;;;;;;;;;;18.20;69.40;;;;;;5053929;28;19913;-75
2022/09/17 08:23:40;;;;;;;;;;;18.20;68.80;;;;;;5054383;28;19916;-74
2022/09/17 08:26:07;;;;;;;;;;;18.10;69.20;;;;;;5060018;28;19912;-77
2022/09/17 08:28:35;;;;;;;;;;;18.10;69.60;;;;;;5084126;28;20218;-70
2022/09/17 08:31:02;;;;;;;;;;;18.00;70.50;;;;;;5073889;28;19922;-73
2022/09/17 08:33:32;;;;;;;;;;;17.90;71.30;;;;;;5092596;28;19915;-72
2022/09/17 08:35:59;;;;;;;;;;;17.80;71.60;;;;;;5091305;28;20014;-73
2022/09/17 08:38:31;;;;;;;;;;;17.70;72.00;;;;;;5074175;28;19908;-73
2022/09/17 08:41:04;;;;;;;;;;;17.60;72.80;;;;;;5072648;28;19915;-73
2022/09/17 08:43:33;;;;;;;;;;;17.60;73.50;;;;;;5091405;28;20020;-71
2022/09/17 08:46:00;;;;;;;;;;;17.60;73.60;;;;;;5091156;28;19971;-73
2022/09/17 08:48:30;;;;;;;;;;;17.50;74.30;;;;;;5073305;28;19914;-75
2022/09/17 08:50:57;;;;;;;;;;;17.40;74.90;;;;;;5092363;28;20305;-76
2022/09/17 08:53:37;;;;;;;;;;;17.40;74.60;;;;;;5073343;28;19923;-75
2022/09/17 08:56:12;;;;;;;;;;;17.30;75.10;;;;;;5057861;28;19921;-73
2022/09/17 08:58:53;;;;;;;;;;;17.30;75.00;;;;;;5070578;28;20474;-74
2022/09/17 09:01:23;;;;;;;;;;;17.30;75.00;;;;;;5052057;28;19919;-73
2022/09/17 09:04:11;;;;;;;;;;;17.20;74.80;;;;;;5052525;28;19913;-75
2022/09/17 09:06:51;;;;;;;;;;;17.20;74.80;;;;;;5068264;28;20061;-73
2022/09/17 09:09:20;;;;;;;;;;;17.10;75.10;;;;;;5052983;28;19920;-76
2022/09/17 09:12:01;;;;;;;;;;;17.00;75.00;;;;;;5071028;28;19913;-75
2022/09/17 09:14:34;;;;;;;;;;;17.00;75.00;;;;;;5071544;28;19912;-73
2022/09/17 09:17:04;;;;;;;;;;;17.00;75.40;;;;;;5069853;28;19913;-74
2022/09/17 09:19:32;;;;;;;;;;;17.00;74.90;;;;;;5089246;28;19912;-72
2022/09/17 09:22:02;;;;;;;;;;;16.90;75.10;;;;;;5072348;28;19913;-74
2022/09/17 09:24:49;;;;;;;;;;;16.90;75.30;;;;;;5082166;28;19958;-74
2022/09/17 09:27:19;;;;;;;;;;;16.90;75.90;;;;;;5066327;28;19953;-73
2022/09/17 09:29:51;;;;;;;;;;;16.80;75.60;;;;;;5091866;28;20002;-74
2022/09/17 09:32:30;;;;;;;;;;;16.70;75.50;;;;;;5091280;28;19916;-74
2022/09/17 09:34:59;;;;;;;;;;;16.70;76.00;;;;;;5088992;28;20007;-71
2022/09/17 09:37:34;;;;;;;;;;;16.80;75.80;;;;;;5091037;28;20295;-74
2022/09/17 09:40:15;;;;;;;;;;;16.70;75.80;;;;;;5072864;28;19912;-73
2022/09/17 09:42:43;;;;;;;;;;;16.70;76.20;;;;;;5088415;28;19916;-71
2022/09/17 09:45:15;;;;;;;;;;;16.70;76.20;;;;;;5057143;28;19965;-72
2022/09/17 09:47:59;;;;;;;;;;;16.70;76.00;;;;;;5071507;28;20002;-71
2022/09/17 09:50:44;;;;;;;;;;;16.60;76.30;;;;;;5071537;28;19915;-71
2022/09/17 09:53:21;;;;;;;;;;;16.60;76.40;;;;;;5071797;28;19912;-72
2022/09/17 09:55:48;;;;;;;;;;;16.60;76.60;;;;;;5053701;28;19921;-75
2022/09/17 09:58:30;;;;;;;;;;;16.50;76.70;;;;;;5084628;28;19915;-75
2022/09/17 10:00:57;;;;;;;;;;;16.50;76.50;;;;;;5090319;28;19904;-73
2022/09/17 10:03:37;;;;;;;;;;;16.50;76.70;;;;;;5081512;28;20273;-77
2022/09/17 10:06:05;;;;;;;;;;;16.40;76.70;;;;;;5071957;28;20344;-72
2022/09/17 10:08:36;;;;;;;;;;;16.50;76.30;;;;;;5063594;28;20498;-74
2022/09/17 10:11:15;;;;;;;;;;;16.40;76.60;;;;;;5091249;28;20380;-75
2022/09/17 10:13:42;;;;;;;;;;;16.40;76.50;;;;;;5092332;28;19912;-74
2022/09/17 10:16:24;;;;;;;;;;;16.40;76.20;;;;;;5093277;28;19920;-72
2022/09/17 10:19:10;;;;;;;;;;;16.40;76.00;;;;;;5056827;28;20400;-74
2022/09/17 10:21:41;;;;;;;;;;;16.40;76.30;;;;;;5074838;28;19915;-72
2022/09/17 10:24:16;;;;;;;;;;;16.40;76.00;;;;;;5071188;28;20011;-72
2022/09/17 10:26:43;;;;;;;;;;;16.40;75.60;;;;;;5090906;28;20379;-73
2022/09/17 10:29:16;;;;;;;;;;;16.30;75.20;;;;;;5076941;28;19961;-76
2022/09/17 10:32:01;;;;;;;;;;;16.40;74.90;;;;;;5094779;28;19916;-74
2022/09/17 10:34:29;;;;;;;;;;;16.40;74.90;;;;;;5076752;28;20437;-74
2022/09/17 10:36:57;;;;;;;;;;;16.40;74.80;;;;;;5092064;28;19916;-73
2022/09/17 10:39:27;;;;;;;;;;;16.40;74.60;;;;;;5075610;28;19912;-75
2022/09/17 10:41:54;;;;;;;;;;;16.40;74.70;;;;;;5093706;28;19909;-74
2022/09/17 10:44:22;;;;;;;;;;;16.40;74.70;;;;;;5056531;28;19952;-73
2022/09/17 10:46:50;;;;;;;;;;;16.40;75.20;;;;;;5056873;28;19919;-73
2022/09/17 10:49:40;;;;;;;;;;;16.30;75.50;;;;;;5073912;28;20397;-76
2022/09/17 10:52:19;;;;;;;;;;;16.20;75.60;;;;;;5063261;28;20250;-75
2022/09/17 10:55:04;;;;;;;;;;;16.20;75.70;;;;;;5074456;28;19909;-76
2022/09/17 10:57:40;;;;;;;;;;;16.20;74.90;;;;;;5083672;28;20269;-72
2022/09/17 11:00:09;;;;;;;;;;;16.30;74.60;;;;;;5093651;28;19961;-76
2022/09/17 11:02:54;;;;;;;;;;;16.30;74.60;;;;;;5094122;28;19912;-75
2022/09/17 11:05:23;;;;;;;;;;;16.30;74.80;;;;;;5076172;28;19930;-74
2022/09/17 11:07:53;;;;;;;;;;;16.30;75.00;;;;;;5091518;28;20009;-74
2022/09/17 11:10:29;;;;;;;;;;;16.20;75.40;;;;;;5093934;28;19916;-74
2022/09/17 11:13:04;;;;;;;;;;;16.10;75.20;;;;;;5092813;28;19912;-73
2022/09/17 11:15:30;;;;;;;;;;;16.10;75.80;;;;;;5093632;28;19912;-72
2022/09/17 11:18:09;;;;;;;;;;;16.00;76.10;;;;;;5091015;28;19952;-71
2022/09/17 11:20:53;;;;;;;;;;;15.90;76.10;;;;;;5093639;28;19908;-72
2022/09/17 11:23:35;;;;;;;;;;;15.90;76.60;;;;;;5093143;28;19961;-74
2022/09/17 11:26:11;;;;;;;;;;;15.90;76.80;;;;;;5093606;28;19908;-72
2022/09/17 11:28:37;;;;;;;;;;;15.80;76.90;;;;;;5093507;28;19912;-73
2022/09/17 11:31:04;;;;;;;;;;;15.80;76.70;;;;;;5093561;28;19908;-74
2022/09/17 11:33:36;;;;;;;;;;;15.70;76.70;;;;;;5092805;28;20382;-74
2022/09/17 11:36:08;;;;;;;;;;;15.70;76.60;;;;;;5092893;28;19923;-72
2022/09/17 11:38:51;;;;;;;;;;;15.70;76.70;;;;;;5091370;28;19908;-74
2022/09/17 11:41:17;;;;;;;;;;;15.70;76.60;;;;;;5075064;28;20522;-72
2022/09/17 11:43:46;;;;;;;;;;;15.70;77.10;;;;;;5092326;28;20397;-73
2022/09/17 11:46:29;;;;;;;;;;;15.70;76.70;;;;;;5090708;28;19966;-74
2022/09/17 11:49:02;;;;;;;;;;;15.70;76.60;;;;;;5072624;28;19931;-74
2022/09/17 11:51:37;;;;;;;;;;;15.60;76.30;;;;;;5084523;28;20379;-71
2022/09/17 11:54:10;;;;;;;;;;;15.60;76.10;;;;;;5092914;28;20283;-73
2022/09/17 11:56:59;;;;;;;;;;;15.60;76.10;;;;;;5089659;28;20299;-70
2022/09/17 11:59:35;;;;;;;;;;;15.60;75.90;;;;;;5092219;28;19919;-74
2022/09/17 12:02:13;;;;;;;;;;;15.60;76.10;;;;;;5092103;28;19975;-72
2022/09/17 12:04:42;;;;;;;;;;;15.60;76.40;;;;;;5092315;28;19916;-75
2022/09/17 12:07:21;;;;;;;;;;;15.70;76.70;;;;;;5089747;28;19912;-75
2022/09/17 12:09:51;;;;;;;;;;;15.60;76.40;;;;;;5092267;28;19920;-72
2022/09/17 12:12:21;;;;;;;;;;;15.60;76.10;;;;;;5092078;28;20838;-70
2022/09/17 12:14:47;;;;;;;;;;;15.60;76.10;;;;;;5092285;28;19908;-69
2022/09/17 12:17:23;;;;;;;;;;;15.60;76.50;;;;;;5089286;28;19909;-68
2022/09/17 12:19:56;;;;;;;;;;;15.60;75.90;;;;;;5091825;28;19908;-69
2022/09/17 12:22:25;;;;;;;;;;;15.60;76.20;;;;;;5055413;28;19916;-69
2022/09/17 12:24:53;;;;;;;;;;;15.60;76.10;;;;;;5071900;28;19920;-73
2022/09/17 12:27:25;;;;;;;;;;;15.60;76.10;;;;;;5079791;28;20364;-71
2022/09/17 12:30:10;;;;;;;;;;;15.60;76.30;;;;;;5092040;28;19953;-71
2022/09/17 12:32:55;;;;;;;;;;;15.60;76.00;;;;;;5071732;28;19920;-74
2022/09/17 12:35:40;;;;;;;;;;;15.50;76.20;;;;;;5075452;28;20364;-74
2022/09/17 12:38:28;;;;;;;;;;;15.50;76.30;;;;;;5082724;28;19954;-73
2022/09/17 12:41:11;;;;;;;;;;;15.50;76.40;;;;;;5071559;28;19919;-73
2022/09/17 12:43:55;;;;;;;;;;;15.50;76.50;;;;;;5071879;28;19995;-72
2022/09/17 12:46:41;;;;;;;;;;;15.50;76.00;;;;;;5071645;28;19912;-73
2022/09/17 12:49:26;;;;;;;;;;;15.50;75.50;;;;;;5088704;28;19915;-74
2022/09/17 12:52:09;;;;;;;;;;;15.60;75.70;;;;;;5090775;28;19916;-73
2022/09/17 12:54:54;;;;;;;;;;;15.50;75.60;;;;;;5091479;28;19908;-74
2022/09/17 12:57:39;;;;;;;;;;;15.60;75.50;;;;;;5091568;28;19912;-74
2022/09/17 13:00:09;;;;;;;;;;;15.60;75.60;;;;;;5073541;28;19953;-74
2022/09/17 13:02:36;;;;;;;;;;;15.60;75.50;;;;;;5072817;28;19913;-73
2022/09/17 13:05:21;;;;;;;;;;;15.60;75.60;;;;;;5071902;28;19932;-73
2022/09/17 13:08:06;;;;;;;;;;;15.60;75.70;;;;;;5071744;28;19916;-74
2022/09/17 13:10:38;;;;;;;;;;;15.60;75.60;;;;;;5077357;28;20372;-74
2022/09/17 13:13:22;;;;;;;;;;;15.60;75.50;;;;;;5079489;28;20313;-75
2022/09/17 13:15:52;;;;;;;;;;;15.60;75.40;;;;;;5075647;28;19928;-75
2022/09/17 13:18:38;;;;;;;;;;;15.50;75.50;;;;;;5077238;28;19917;-74
2022/09/17 13:21:15;;;;;;;;;;;15.50;75.50;;;;;;5075980;23;19948;-74
2022/09/17 13:23:43;;;;;;;;;;;15.60;75.50;;;;;;5069632;28;19935;-72
2022/09/17 13:26:15;;;;;;;;;;;15.50;75.80;;;;;;5070485;28;19923;-73
2022/09/17 13:29:00;;;;;;;;;;;15.50;76.60;;;;;;5046604;28;19928;-74
2022/09/17 13:31:40;;;;;;;;;;;15.50;75.90;;;;;;5048548;28;19935;-75
2022/09/17 13:34:19;;;;;;;;;;;15.50;75.70;;;;;;5046347;28;19917;-74
2022/09/17 13:36:46;;;;;;;;;;;15.50;75.80;;;;;;5049587;28;19917;-71
2022/09/17 13:39:31;;;;;;;;;;;15.50;76.20;;;;;;5047270;28;19912;-72
2022/09/17 13:42:20;;;;;;;;;;;15.50;75.80;;;;;;5048733;28;19955;-74
2022/09/17 13:44:50;;;;;;;;;;;15.50;75.10;;;;;;5043545;28;19963;-72
2022/09/17 13:47:29;;;;;;;;;;;15.60;74.70;;;;;;5053924;28;19905;-73
2022/09/17 13:50:04;;;;;;;;;;;15.60;74.80;;;;;;5055005;28;19913;-72
2022/09/17 13:52:37;;;;;;;;;;;15.60;74.70;;;;;;5055915;28;20615;-75
2022/09/17 13:55:04;;;;;;;;;;;15.60;74.80;;;;;;5055324;28;19917;-72
2022/09/17 13:57:33;;;;;;;;;;;15.60;74.90;;;;;;5055741;28;19918;-73
2022/09/17 14:00:00;;;;;;;;;;;15.60;75.40;;;;;;5054998;28;20003;-73
2022/09/17 14:02:28;;;;;;;;;;;15.60;75.30;;;;;;5055564;28;19947;-74
2022/09/17 14:04:56;;;;;;;;;;;15.50;75.10;;;;;;5036907;28;20274;-74
2022/09/17 14:07:22;;;;;;;;;;;15.50;75.50;;;;;;5055252;28;19908;-73
2022/09/17 14:09:53;;;;;;;;;;;15.50;75.30;;;;;;5054752;28;19947;-72
2022/09/17 14:12:48;;;;;;;;;;;15.50;75.30;;;;;;5055330;28;20370;-74
2022/09/17 14:15:31;;;;;;;;;;;15.50;75.30;;;;;;5055587;28;19912;-73
2022/09/17 14:17:58;;;;;;;;;;;15.40;75.60;;;;;;5055398;28;19913;-74
2022/09/17 14:20:25;;;;;;;;;;;15.40;75.40;;;;;;5053890;28;19967;-73
2022/09/17 14:22:58;;;;;;;;;;;15.40;75.20;;;;;;5055416;28;20281;-73
2022/09/17 14:25:34;;;;;;;;;;;15.40;75.00;;;;;;5054923;28;19916;-73
2022/09/17 14:28:04;;;;;;;;;;;15.60;75.20;;;;;;5055006;28;19942;-74
2022/09/17 14:30:31;;;;;;;;;;;15.50;75.50;;;;;;5054984;28;19919;-72
2022/09/17 14:33:00;;;;;;;;;;;15.50;74.80;;;;;;5055056;28;19920;-73
2022/09/17 14:35:34;;;;;;;;;;;15.50;75.10;;;;;;5055018;28;19952;-76
2022/09/17 14:38:03;;;;;;;;;;;15.60;74.40;;;;;;5054857;28;19909;-74
2022/09/17 14:40:32;;;;;;;;;;;15.60;74.20;;;;;;5054565;28;19913;-75